Time;durP1;ratioP1;P1;durP2;ratioP2;P2;SDS_P1;SDS_P2;PMS_P1;PMS_P2;Temp;Humidity;BMP_temperature;BMP_pressure;BME280_temperature;BME280_humidity;BME280_pressure;Samples;Min_cycle;Max_cycle;Signal;HPM_P1;HPM_P2
2023/08/26 00:01:02;;;;;;;39.65;27.20;;;;;;;;;;5011823;28;20053;-85
2023/08/26 00:03:44;;;;;;;39.25;26.30;;;;;;;;;;5013707;28;20106;-86
2023/08/26 00:06:18;;;;;;;39.08;27.10;;;;;;;;;;5018044;28;20239;-86
2023/08/26 00:08:45;;;;;;;38.80;27.27;;;;;;;;;;5033396;28;20066;-86
2023/08/26 00:11:17;;;;;;;39.97;26.70;;;;;;;;;;5033450;28;20046;-86
2023/08/26 00:13:46;;;;;;;39.97;28.33;;;;;;;;;;5013724;28;20213;-86
2023/08/26 00:16:20;;;;;;;43.15;29.45;;;;;;;;;;4999872;28;20058;-86
2023/08/26 00:19:05;;;;;;;42.22;29.15;;;;;;;;;;5000746;28;20058;-86
2023/08/26 00:21:56;;;;;;;46.13;30.63;;;;;;;;;;5003080;28;20026;-85
2023/08/26 00:24:39;;;;;;;47.90;31.92;;;;;;;;;;5000588;28;20022;-85
2023/08/26 00:27:10;;;;;;;45.13;29.83;;;;;;;;;;5015102;28;20042;-86
2023/08/26 00:29:40;;;;;;;43.78;28.15;;;;;;;;;;4999668;28;20038;-85
2023/08/26 00:32:09;;;;;;;49.70;29.85;;;;;;;;;;5015458;28;20038;-86
2023/08/26 00:34:37;;;;;;;46.92;31.02;;;;;;;;;;5013473;28;20086;-86
2023/08/26 00:37:05;;;;;;;44.55;29.92;;;;;;;;;;5015066;28;20054;-86
2023/08/26 00:39:33;;;;;;;43.13;28.10;;;;;;;;;;4990283;28;20129;-86
2023/08/26 00:42:02;;;;;;;43.45;27.30;;;;;;;;;;5010484;28;20042;-86
2023/08/26 00:44:31;;;;;;;41.42;28.77;;;;;;;;;;5011761;28;20207;-85
2023/08/26 00:47:01;;;;;;;43.03;26.27;;;;;;;;;;5012986;28;20085;-85
2023/08/26 00:49:29;;;;;;;41.53;27.02;;;;;;;;;;5010332;28;20054;-86
2023/08/26 00:52:15;;;;;;;45.78;28.42;;;;;;;;;;5012848;28;20111;-86
2023/08/26 00:54:56;;;;;;;39.50;24.77;;;;;;;;;;4995901;28;20050;-86
2023/08/26 00:57:24;;;;;;;40.00;26.55;;;;;;;;;;4993586;28;20081;-86
2023/08/26 00:59:52;;;;;;;41.20;27.50;;;;;;;;;;4990838;28;20054;-86
2023/08/26 01:02:24;;;;;;;38.30;25.17;;;;;;;;;;5011882;28;20149;-86
2023/08/26 01:04:55;;;;;;;41.45;26.67;;;;;;;;;;4991700;28;20082;-86
2023/08/26 01:07:23;;;;;;;39.97;27.25;;;;;;;;;;4995148;28;20136;-85
2023/08/26 01:09:53;;;;;;;38.00;25.27;;;;;;;;;;4992609;28;20069;-86
2023/08/26 01:13:06;;;;;;;41.03;26.35;;;;;;;;;;5011217;28;20231;-85
2023/08/26 01:15:35;;;;;;;44.78;27.75;;;;;;;;;;4966036;28;20072;-86
2023/08/26 01:18:06;;;;;;;48.25;29.48;;;;;;;;;;5010223;28;20057;-86
2023/08/26 01:20:34;;;;;;;54.08;31.75;;;;;;;;;;5011063;28;20057;-86
2023/08/26 01:23:05;;;;;;;53.05;30.35;;;;;;;;;;5011183;28;20049;-87
2023/08/26 01:25:34;;;;;;;42.10;27.33;;;;;;;;;;5011461;28;20121;-86
2023/08/26 01:28:04;;;;;;;55.22;30.58;;;;;;;;;;5029703;28;20053;-87
2023/08/26 01:30:35;;;;;;;48.90;28.05;;;;;;;;;;5013895;28;20300;-87
2023/08/26 01:36:31;;;;;;;49.15;26.83;;;;;;;;;;5030390;28;20073;-87
2023/08/26 01:39:03;;;;;;;44.40;25.60;;;;;;;;;;5009040;28;20046;-87
2023/08/26 01:41:31;;;;;;;46.40;24.45;;;;;;;;;;5013507;28;20080;-86
2023/08/26 01:43:59;;;;;;;41.65;22.90;;;;;;;;;;5007921;28;20140;-86
2023/08/26 01:46:39;;;;;;;38.45;21.80;;;;;;;;;;5025303;28;20088;-86
2023/08/26 01:49:07;;;;;;;39.58;22.23;;;;;;;;;;5012932;28;20076;-89
2023/08/26 01:51:35;;;;;;;38.10;20.33;;;;;;;;;;5028416;28;20377;-88
2023/08/26 01:54:08;;;;;;;39.88;22.83;;;;;;;;;;5032681;28;20077;-89
2023/08/26 01:56:36;;;;;;;42.22;21.45;;;;;;;;;;5007592;28;20060;-89
2023/08/26 01:59:11;;;;;;;42.35;22.05;;;;;;;;;;5014877;28;20060;-89
2023/08/26 02:01:39;;;;;;;43.47;21.58;;;;;;;;;;5022577;28;20104;-88
2023/08/26 02:04:14;;;;;;;33.30;19.45;;;;;;;;;;5032103;28;20045;-89
2023/08/26 02:06:42;;;;;;;42.40;21.17;;;;;;;;;;5029607;28;20092;-88
2023/08/26 02:09:13;;;;;;;38.22;20.75;;;;;;;;;;5023047;28;20064;-88
2023/08/26 02:11:43;;;;;;;38.33;20.73;;;;;;;;;;5019741;28;20140;-88
2023/08/26 02:14:12;;;;;;;33.50;18.75;;;;;;;;;;4996162;28;20069;-88
2023/08/26 02:16:53;;;;;;;43.80;21.63;;;;;;;;;;5003985;28;20046;-88
2023/08/26 02:19:23;;;;;;;40.30;20.92;;;;;;;;;;4984722;28;20046;-88
2023/08/26 02:21:52;;;;;;;38.92;21.55;;;;;;;;;;5002768;28;20054;-88
2023/08/26 02:24:19;;;;;;;37.53;22.20;;;;;;;;;;4985206;28;20200;-87
2023/08/26 02:26:49;;;;;;;37.13;21.00;;;;;;;;;;5002605;28;20556;-86
2023/08/26 02:29:18;;;;;;;35.55;20.42;;;;;;;;;;5003038;28;20126;-88
2023/08/26 02:31:46;;;;;;;37.60;22.58;;;;;;;;;;4985775;28;20054;-88
2023/08/26 02:34:14;;;;;;;36.80;21.48;;;;;;;;;;4985350;28;20108;-88
2023/08/26 02:37:18;;;;;;;34.63;21.80;;;;;;;;;;4993466;28;20061;-89
2023/08/26 02:39:49;;;;;;;37.70;22.55;;;;;;;;;;5006422;28;20256;-89
2023/08/26 02:42:17;;;;;;;43.75;24.00;;;;;;;;;;5002937;28;20126;-88
2023/08/26 02:44:48;;;;;;;46.97;26.13;;;;;;;;;;5005728;28;20342;-88
2023/08/26 02:47:17;;;;;;;45.95;26.20;;;;;;;;;;5001133;28;20042;-88
2023/08/26 02:49:45;;;;;;;50.60;28.92;;;;;;;;;;4989578;28;20046;-88
2023/08/26 02:52:15;;;;;;;54.25;31.25;;;;;;;;;;4987588;28;20050;-88
2023/08/26 02:54:53;;;;;;;61.42;32.17;;;;;;;;;;5005825;28;20057;-88
2023/08/26 02:57:27;;;;;;;60.97;31.98;;;;;;;;;;5005038;28;20062;-88
2023/08/26 02:59:54;;;;;;;61.45;32.30;;;;;;;;;;5007127;28;20219;-88
2023/08/26 03:02:24;;;;;;;52.15;31.13;;;;;;;;;;5009113;28;20080;-88
2023/08/26 03:05:24;;;;;;;51.45;29.90;;;;;;;;;;4992819;28;20101;-87
2023/08/26 03:08:07;;;;;;;48.55;28.90;;;;;;;;;;4989758;28;20104;-88
2023/08/26 03:10:35;;;;;;;43.28;26.80;;;;;;;;;;4991317;28;20050;-89
2023/08/26 03:13:08;;;;;;;41.08;25.42;;;;;;;;;;4991259;28;20057;-88
2023/08/26 03:15:46;;;;;;;37.05;23.30;;;;;;;;;;5015149;28;20106;-88
2023/08/26 03:18:30;;;;;;;34.10;21.98;;;;;;;;;;5026308;28;20100;-86
2023/08/26 03:21:13;;;;;;;34.83;22.20;;;;;;;;;;5014114;28;20100;-85
2023/08/26 03:23:40;;;;;;;31.77;20.73;;;;;;;;;;5032097;28;20045;-85
2023/08/26 03:26:09;;;;;;;34.20;21.42;;;;;;;;;;5015513;28;20066;-85
2023/08/26 03:28:37;;;;;;;34.95;22.52;;;;;;;;;;5014036;28;20152;-85
2023/08/26 03:31:06;;;;;;;36.45;20.45;;;;;;;;;;5013879;28;20046;-85
2023/08/26 03:33:33;;;;;;;36.10;22.98;;;;;;;;;;5013570;28;20069;-85
2023/08/26 03:36:07;;;;;;;32.97;20.70;;;;;;;;;;5014857;28;20073;-86
2023/08/26 03:38:36;;;;;;;37.17;22.35;;;;;;;;;;5027551;28;20129;-86
2023/08/26 03:41:06;;;;;;;36.60;22.10;;;;;;;;;;5029703;28;20068;-86
2023/08/26 03:43:39;;;;;;;34.10;20.63;;;;;;;;;;5028882;28;20060;-86
2023/08/26 03:46:07;;;;;;;41.22;22.38;;;;;;;;;;5032154;28;20049;-86
2023/08/26 03:48:38;;;;;;;33.05;21.00;;;;;;;;;;5029194;28;20049;-85
2023/08/26 03:51:07;;;;;;;35.83;20.65;;;;;;;;;;5013148;28;20046;-86
2023/08/26 03:53:35;;;;;;;35.78;19.83;;;;;;;;;;5012404;28;20065;-86
2023/08/26 03:56:15;;;;;;;33.47;21.80;;;;;;;;;;5012703;28;20132;-85
2023/08/26 03:58:49;;;;;;;33.40;19.67;;;;;;;;;;5011785;28;20050;-86
2023/08/26 04:01:31;;;;;;;32.53;19.58;;;;;;;;;;5016640;28;20034;-85
2023/08/26 04:03:58;;;;;;;35.20;20.02;;;;;;;;;;5033911;28;20054;-86
2023/08/26 04:06:35;;;;;;;35.40;19.40;;;;;;;;;;5032262;28;20334;-86
2023/08/26 04:09:05;;;;;;;35.38;20.17;;;;;;;;;;5016591;28;20037;-85
2023/08/26 04:11:36;;;;;;;32.97;18.45;;;;;;;;;;5028469;28;20042;-85
2023/08/26 04:14:05;;;;;;;32.88;17.83;;;;;;;;;;5004189;28;20082;-85
2023/08/26 04:16:33;;;;;;;31.60;19.25;;;;;;;;;;4991608;28;20050;-86
2023/08/26 04:19:06;;;;;;;31.45;18.25;;;;;;;;;;5007540;28;20435;-86
2023/08/26 04:21:46;;;;;;;26.45;17.42;;;;;;;;;;5009891;28;20074;-86
2023/08/26 04:24:14;;;;;;;33.50;18.73;;;;;;;;;;4991965;28;20052;-85
2023/08/26 04:26:47;;;;;;;29.63;19.08;;;;;;;;;;4991444;28;20191;-86
2023/08/26 04:29:18;;;;;;;32.72;19.27;;;;;;;;;;4990369;28;20113;-85
2023/08/26 04:31:48;;;;;;;30.48;18.08;;;;;;;;;;4996340;28;20038;-88
2023/08/26 04:34:29;;;;;;;36.03;16.80;;;;;;;;;;5019228;28;20034;-88
2023/08/26 04:37:06;;;;;;;31.33;16.77;;;;;;;;;;5017193;28;20050;-88
2023/08/26 04:39:45;;;;;;;29.20;15.55;;;;;;;;;;4993500;28;20057;-90
2023/08/26 04:42:18;;;;;;;24.02;14.75;;;;;;;;;;4996215;28;20046;-88
2023/08/26 04:44:59;;;;;;;30.10;14.48;;;;;;;;;;4998868;28;20058;-88
2023/08/26 04:47:28;;;;;;;21.38;13.05;;;;;;;;;;5004866;28;20054;-88
2023/08/26 04:50:04;;;;;;;24.77;13.65;;;;;;;;;;5004506;28;20423;-88
2023/08/26 04:52:40;;;;;;;22.90;13.48;;;;;;;;;;5003672;28;20218;-89
2023/08/26 04:55:08;;;;;;;30.88;13.52;;;;;;;;;;4987657;28;20117;-89
2023/08/26 04:57:39;;;;;;;26.30;13.45;;;;;;;;;;4988295;28;20050;-88
2023/08/26 05:00:23;;;;;;;23.80;13.85;;;;;;;;;;4988262;28;20398;-88
2023/08/26 05:02:50;;;;;;;22.02;12.30;;;;;;;;;;5001712;28;20109;-86
2023/08/26 05:05:20;;;;;;;26.42;13.82;;;;;;;;;;4988806;28;20054;-86
2023/08/26 05:07:47;;;;;;;26.95;13.63;;;;;;;;;;4986997;28;20322;-85
2023/08/26 05:10:19;;;;;;;21.85;11.98;;;;;;;;;;5001448;28;20134;-85
2023/08/26 05:13:24;;;;;;;23.25;12.13;;;;;;;;;;4985185;28;20136;-86
2023/08/26 05:15:53;;;;;;;19.65;11.65;;;;;;;;;;5004681;28;20050;-85
2023/08/26 05:18:24;;;;;;;19.48;12.68;;;;;;;;;;5005788;28;20060;-86
2023/08/26 05:20:55;;;;;;;23.27;11.52;;;;;;;;;;5007435;28;20151;-85
2023/08/26 05:23:24;;;;;;;23.95;12.48;;;;;;;;;;5024198;28;20050;-85
2023/08/26 05:26:07;;;;;;;27.67;12.85;;;;;;;;;;5005605;28;20115;-85
2023/08/26 05:28:39;;;;;;;19.73;11.35;;;;;;;;;;5005506;28;20316;-86
2023/08/26 05:31:39;;;;;;;21.95;12.77;;;;;;;;;;5007594;28;20338;-86
2023/08/26 05:34:08;;;;;;;15.57;10.57;;;;;;;;;;5004936;28;20068;-86
2023/08/26 05:36:39;;;;;;;20.23;10.73;;;;;;;;;;5022553;28;20057;-87
2023/08/26 05:39:08;;;;;;;14.88;9.90;;;;;;;;;;5023550;28;20045;-86
2023/08/26 05:41:36;;;;;;;18.20;10.90;;;;;;;;;;5021752;28;20076;-85
2023/08/26 05:44:04;;;;;;;15.93;8.95;;;;;;;;;;5008346;28;20050;-85
2023/08/26 05:46:34;;;;;;;15.95;9.50;;;;;;;;;;5024639;28;20050;-85
2023/08/26 05:49:03;;;;;;;16.85;8.30;;;;;;;;;;5022589;28;20258;-86
2023/08/26 05:51:34;;;;;;;15.32;8.23;;;;;;;;;;5024240;28;20066;-87
2023/08/26 05:54:09;;;;;;;13.75;7.22;;;;;;;;;;5028002;28;20057;-86
2023/08/26 05:56:40;;;;;;;13.02;6.80;;;;;;;;;;5027005;28;20050;-85
2023/08/26 05:59:12;;;;;;;13.77;7.50;;;;;;;;;;5024808;28;20105;-85
2023/08/26 06:01:40;;;;;;;11.13;7.15;;;;;;;;;;5024993;28;20046;-85
2023/08/26 06:04:08;;;;;;;10.55;6.57;;;;;;;;;;5023930;28;20053;-85
2023/08/26 06:06:37;;;;;;;13.35;6.72;;;;;;;;;;5007305;28;20058;-85
2023/08/26 06:09:16;;;;;;;10.73;6.32;;;;;;;;;;5023011;28;20090;-85
2023/08/26 06:11:45;;;;;;;11.23;6.43;;;;;;;;;;5028683;28;20049;-86
2023/08/26 06:14:39;;;;;;;13.50;6.95;;;;;;;;;;5016260;28;20148;-86
2023/08/26 06:17:10;;;;;;;9.40;5.32;;;;;;;;;;4984018;28;20046;-86
2023/08/26 06:19:53;;;;;;;8.38;4.90;;;;;;;;;;4998324;28;20077;-86
2023/08/26 06:22:34;;;;;;;11.20;4.95;;;;;;;;;;4994807;28;20122;-86
2023/08/26 06:25:21;;;;;;;11.43;5.13;;;;;;;;;;5006469;28;20055;-86
2023/08/26 06:27:50;;;;;;;7.15;5.00;;;;;;;;;;4984626;28;20054;-86
2023/08/26 06:30:30;;;;;;;10.43;4.43;;;;;;;;;;4991290;28;20060;-86
2023/08/26 06:32:58;;;;;;;10.15;5.50;;;;;;;;;;4982833;28;20054;-85
2023/08/26 06:35:56;;;;;;;7.13;4.28;;;;;;;;;;5002664;28;20050;-85
2023/08/26 06:38:23;;;;;;;7.00;3.60;;;;;;;;;;4989123;28;20187;-86
2023/08/26 06:40:56;;;;;;;5.97;3.75;;;;;;;;;;4983351;28;20038;-86
2023/08/26 06:43:27;;;;;;;9.32;4.00;;;;;;;;;;4983915;28;20417;-86
2023/08/26 06:45:55;;;;;;;7.97;3.63;;;;;;;;;;4983717;28;20430;-86
2023/08/26 06:48:34;;;;;;;6.93;3.40;;;;;;;;;;4981576;28;20215;-86
2023/08/26 06:51:01;;;;;;;6.97;3.65;;;;;;;;;;4998129;28;20093;-86
2023/08/26 06:53:30;;;;;;;3.95;2.85;;;;;;;;;;4981628;28;20093;-87
2023/08/26 06:55:58;;;;;;;7.78;3.20;;;;;;;;;;4980939;28;20118;-87
2023/08/26 06:58:27;;;;;;;9.25;2.72;;;;;;;;;;4979009;28;20204;-86
2023/08/26 07:00:55;;;;;;;7.15;3.00;;;;;;;;;;4978507;28;20124;-86
2023/08/26 07:03:30;;;;;;;3.95;2.38;;;;;;;;;;4980466;28;20241;-86
2023/08/26 07:05:59;;;;;;;7.40;3.17;;;;;;;;;;4978382;28;20061;-89
2023/08/26 07:08:33;;;;;;;6.07;3.45;;;;;;;;;;4979139;28;20206;-89
2023/08/26 07:11:03;;;;;;;;;;;;;;;;;;5001517;28;20155;-89
2023/08/26 07:13:35;;;;;;;6.63;2.47;;;;;;;;;;5004045;28;19922;-88
2023/08/26 07:16:05;;;;;;;3.45;2.28;;;;;;;;;;4998642;28;20406;-89
2023/08/26 07:18:38;;;;;;;5.65;2.30;;;;;;;;;;4998721;28;20046;-88
2023/08/26 07:21:08;;;;;;;5.13;2.20;;;;;;;;;;4997227;28;20155;-89
2023/08/26 07:23:36;;;;;;;4.80;2.70;;;;;;;;;;5018568;28;20141;-89
2023/08/26 07:26:07;;;;;;;5.72;2.70;;;;;;;;;;5012655;28;20551;-89
2023/08/26 07:28:34;;;;;;;5.88;2.33;;;;;;;;;;5015854;28;20081;-87
2023/08/26 07:31:03;;;;;;;7.10;2.28;;;;;;;;;;5015410;28;20073;-87
2023/08/26 07:33:32;;;;;;;8.27;2.97;;;;;;;;;;5015417;28;20321;-88
2023/08/26 07:36:13;;;;;;;4.47;2.20;;;;;;;;;;4998569;28;20053;-88
2023/08/26 07:38:54;;;;;;;9.90;3.28;;;;;;;;;;4999716;28;20049;-88
2023/08/26 07:41:23;;;;;;;4.50;3.00;;;;;;;;;;5015757;28;20060;-88
2023/08/26 07:43:57;;;;;;;7.47;2.72;;;;;;;;;;5023069;28;20116;-89
2023/08/26 07:46:27;;;;;;;4.65;2.58;;;;;;;;;;5021481;28;20760;-88
2023/08/26 07:48:58;;;;;;;4.60;2.25;;;;;;;;;;5009364;28;20074;-88
2023/08/26 07:51:26;;;;;;;6.32;2.25;;;;;;;;;;5023043;28;20114;-89
2023/08/26 07:54:03;;;;;;;5.03;2.60;;;;;;;;;;5023723;28;20064;-89
2023/08/26 07:56:31;;;;;;;4.93;2.35;;;;;;;;;;5023056;28;20518;-89
2023/08/26 07:58:58;;;;;;;5.55;1.88;;;;;;;;;;5015800;28;20038;-89
2023/08/26 08:01:29;;;;;;;2.40;1.42;;;;;;;;;;5015793;28;20112;-89
2023/08/26 08:04:18;;;;;;;5.03;2.22;;;;;;;;;;5019324;28;20089;-89
2023/08/26 08:07:01;;;;;;;7.95;2.25;;;;;;;;;;5012077;28;20049;-89
2023/08/26 08:09:47;;;;;;;7.38;2.28;;;;;;;;;;5038543;28;20025;-87
2023/08/26 08:15:51;;;;;;;3.45;1.88;;;;;;;;;;5040114;28;20080;-89
2023/08/26 08:35:42;;;;;;;6.18;2.30;;;;;;;;;;5431093;22;20635;-87
2023/08/26 10:13:25;;;;;;;10.80;6.27;;;;;;;;;;5759650;22;20038;-86
2023/08/26 10:16:27;;;;;;;;;;;;;;;;;;;;;
2023/08/26 10:28:20;;;;;;;10.65;5.85;;;;;;;;;;5934506;22;20049;-88
2023/08/26 10:31:17;;;;;;;8.45;5.38;;;;;;;;;;5016765;28;20046;-87
2023/08/26 10:34:10;;;;;;;8.43;5.45;;;;;;;;;;5001511;28;20022;-90
2023/08/26 10:36:57;;;;;;;8.18;4.85;;;;;;;;;;5145591;23;20097;-88
2023/08/26 10:39:45;;;;;;;14.73;5.72;;;;;;;;;;4999756;28;20053;-89
2023/08/26 10:42:28;;;;;;;16.95;6.18;;;;;;;;;;5015670;28;20035;-89
2023/08/26 10:45:11;;;;;;;11.88;4.30;;;;;;;;;;5027808;23;20080;-88
2023/08/26 10:48:23;;;;;;;8.00;4.05;;;;;;;;;;4990408;28;20066;-88
2023/08/26 10:51:11;;;;;;;8.63;3.20;;;;;;;;;;5003258;28;20060;-88
2023/08/26 10:53:42;;;;;;;6.50;3.15;;;;;;;;;;5016282;28;20123;-90
2023/08/26 10:58:46;;;;;;;8.35;2.88;;;;;;;;;;5232925;22;20044;-87
2023/08/26 11:01:28;;;;;;;5.80;2.03;;;;;;;;;;5090395;23;20074;-86
2023/08/26 11:04:10;;;;;;;5.70;1.88;;;;;;;;;;5015512;28;20030;-89
2023/08/26 11:07:09;;;;;;;13.80;2.35;;;;;;;;;;4999231;28;20041;-88
2023/08/26 11:12:30;;;;;;;5.90;1.75;;;;;;;;;;856740;26;20310;-88
2023/08/26 11:15:08;;;;;;;5.82;2.13;;;;;;;;;;4970500;28;20062;-86
2023/08/26 11:18:01;;;;;;;6.35;1.80;;;;;;;;;;4984506;28;20114;-84
2023/08/26 11:23:48;;;;;;;4.47;1.60;;;;;;;;;;5003426;28;20061;-85
2023/08/26 11:26:23;;;;;;;4.97;1.58;;;;;;;;;;4986884;28;20100;-86
2023/08/26 11:29:31;;;;;;;4.37;1.60;;;;;;;;;;4985831;28;20282;-87
2023/08/26 11:32:06;;;;;;;5.40;1.88;;;;;;;;;;4988144;28;20202;-86
2023/08/26 11:34:36;;;;;;;6.80;1.70;;;;;;;;;;4987639;28;20078;-86
2023/08/26 11:37:07;;;;;;;7.90;1.98;;;;;;;;;;4989218;28;20110;-86
2023/08/26 11:39:40;;;;;;;7.47;1.52;;;;;;;;;;4984120;28;20038;-86
2023/08/26 11:42:14;;;;;;;4.93;1.65;;;;;;;;;;4983766;28;20129;-87
2023/08/26 11:44:48;;;;;;;4.40;1.33;;;;;;;;;;4984609;28;20042;-86
2023/08/26 11:47:21;;;;;;;4.88;1.50;;;;;;;;;;5001093;28;20153;-86
2023/08/26 11:50:19;;;;;;;9.43;1.65;;;;;;;;;;5001763;28;20239;-87
2023/08/26 11:52:50;;;;;;;4.75;1.27;;;;;;;;;;4978786;28;20213;-87
2023/08/26 11:55:19;;;;;;;5.75;1.50;;;;;;;;;;4985226;28;20047;-89
2023/08/26 11:58:12;;;;;;;3.42;1.30;;;;;;;;;;5001172;28;20223;-88
2023/08/26 12:00:41;;;;;;;4.63;1.98;;;;;;;;;;4972160;28;20077;-88
2023/08/26 12:03:21;;;;;;;3.40;1.80;;;;;;;;;;5001525;28;20054;-87
2023/08/26 12:05:55;;;;;;;7.20;1.98;;;;;;;;;;4983828;28;20050;-87
2023/08/26 12:08:28;;;;;;;4.40;1.52;;;;;;;;;;4997185;28;20050;-88
2023/08/26 12:11:14;;;;;;;8.15;1.50;;;;;;;;;;4983954;28;20083;-86
2023/08/26 12:14:21;;;;;;;4.40;1.50;;;;;;;;;;4998709;28;20081;-86
2023/08/26 12:17:14;;;;;;;4.30;1.48;;;;;;;;;;5003343;28;20053;-86
2023/08/26 12:23:03;;;;;;;6.15;1.85;;;;;;;;;;5017322;28;20239;-87
2023/08/26 12:25:42;;;;;;;4.35;1.60;;;;;;;;;;5017215;28;20046;-85
2023/08/26 12:28:17;;;;;;;6.13;1.65;;;;;;;;;;5020266;28;20060;-86
2023/08/26 12:30:46;;;;;;;6.25;1.58;;;;;;;;;;5002014;28;20041;-86
2023/08/26 12:33:21;;;;;;;7.50;1.70;;;;;;;;;;5000500;28;20101;-87
2023/08/26 12:35:54;;;;;;;3.42;1.27;;;;;;;;;;5015926;28;20046;-87
2023/08/26 12:38:30;;;;;;;5.45;1.40;;;;;;;;;;5001041;28;20391;-87
2023/08/26 12:41:01;;;;;;;5.63;1.20;;;;;;;;;;4999278;28;20505;-87
2023/08/26 12:47:02;;;;;;;8.10;1.88;;;;;;;;;;5018935;28;20028;-88
2023/08/26 12:49:35;;;;;;;7.55;1.17;;;;;;;;;;5000909;28;20106;-86
2023/08/26 12:52:22;;;;;;;5.82;1.15;;;;;;;;;;4986977;28;20041;-89
2023/08/26 12:54:54;;;;;;;5.03;1.02;;;;;;;;;;5002127;28;20126;-89
2023/08/26 12:57:25;;;;;;;3.22;1.35;;;;;;;;;;5019321;28;20053;-88
2023/08/26 13:00:04;;;;;;;4.88;1.08;;;;;;;;;;5003309;28;20064;-90
2023/08/26 13:02:41;;;;;;;4.80;1.17;;;;;;;;;;5002383;28;20065;-89
2023/08/26 13:05:19;;;;;;;7.55;1.35;;;;;;;;;;5003800;28;20070;-89
2023/08/26 13:08:08;;;;;;;4.88;1.30;;;;;;;;;;5015575;28;20045;-88
2023/08/26 13:10:44;;;;;;;5.15;1.52;;;;;;;;;;4996772;28;20136;-87
2023/08/26 13:13:30;;;;;;;4.68;1.30;;;;;;;;;;4993105;28;20106;-87
2023/08/26 13:16:08;;;;;;;4.95;1.38;;;;;;;;;;4977920;28;20327;-87
2023/08/26 13:18:42;;;;;;;5.45;1.20;;;;;;;;;;4978962;28;20425;-87
2023/08/26 13:21:29;;;;;;;4.03;1.30;;;;;;;;;;4977457;28;20141;-89
2023/08/26 13:23:58;;;;;;;5.25;1.02;;;;;;;;;;4980933;28;20046;-90
2023/08/26 13:26:29;;;;;;;5.10;1.10;;;;;;;;;;4982717;28;20057;-89
2023/08/26 13:29:00;;;;;;;5.13;1.30;;;;;;;;;;4982097;28;20050;-89
2023/08/26 13:31:36;;;;;;;7.28;1.13;;;;;;;;;;4999735;28;20137;-89
2023/08/26 13:34:13;;;;;;;7.82;1.15;;;;;;;;;;4984738;28;20074;-89
2023/08/26 13:36:54;;;;;;;4.18;0.98;;;;;;;;;;4984547;28;20066;-90
2023/08/26 13:39:32;;;;;;;3.80;1.30;;;;;;;;;;4998987;28;20065;-90
2023/08/26 13:42:13;;;;;;;6.18;1.30;;;;;;;;;;4985356;28;20133;-89
2023/08/26 13:44:41;;;;;;;10.93;1.33;;;;;;;;;;4984374;28;20255;-89
2023/08/26 13:47:11;;;;;;;4.10;1.35;;;;;;;;;;5005322;28;20110;-89
2023/08/26 13:49:55;;;;;;;2.15;0.80;;;;;;;;;;5005961;28;20054;-90
2023/08/26 13:52:30;;;;;;;4.35;1.20;;;;;;;;;;4994268;28;20054;-89
2023/08/26 13:55:13;;;;;;;7.38;1.10;;;;;;;;;;5003976;28;20054;-89
2023/08/26 13:58:05;;;;;;;6.25;1.08;;;;;;;;;;5004080;28;20050;-90
2023/08/26 14:00:37;;;;;;;10.48;1.10;;;;;;;;;;4985330;28;20230;-91
2023/08/26 14:03:11;;;;;;;2.13;0.82;;;;;;;;;;5002262;28;20211;-90
2023/08/26 14:05:45;;;;;;;3.97;1.05;;;;;;;;;;4987598;28;20054;-89
2023/08/26 14:08:19;;;;;;;2.25;0.90;;;;;;;;;;5000504;28;20077;-90
2023/08/26 14:10:52;;;;;;;4.40;0.85;;;;;;;;;;4998301;28;20095;-90
2023/08/26 14:13:22;;;;;;;8.95;1.10;;;;;;;;;;4983271;28;20285;-90
2023/08/26 14:15:52;;;;;;;2.83;0.77;;;;;;;;;;4983527;28;20050;-89
2023/08/26 14:18:25;;;;;;;4.15;0.90;;;;;;;;;;4981236;28;20077;-88
2023/08/26 14:21:05;;;;;;;2.75;1.05;;;;;;;;;;4997302;28;20117;-89
2023/08/26 14:23:41;;;;;;;3.00;1.00;;;;;;;;;;4995262;28;20312;-89
2023/08/26 14:26:16;;;;;;;5.90;0.98;;;;;;;;;;4983110;28;20064;-88
2023/08/26 14:29:00;;;;;;;3.55;1.00;;;;;;;;;;4982052;28;20058;-89
2023/08/26 14:31:41;;;;;;;1.25;0.90;;;;;;;;;;4983011;28;20065;-90
2023/08/26 14:34:22;;;;;;;1.88;0.65;;;;;;;;;;4980226;28;20077;-91
2023/08/26 14:36:56;;;;;;;2.38;0.93;;;;;;;;;;4981509;28;20065;-88
2023/08/26 14:39:31;;;;;;;;;;;;;;;;;;4997453;28;20051;-89
2023/08/26 14:42:12;;;;;;;6.40;1.25;;;;;;;;;;4983668;28;19925;-90
2023/08/26 14:45:11;;;;;;;2.63;0.77;;;;;;;;;;4996629;28;20104;-90
2023/08/26 14:47:46;;;;;;;3.15;0.80;;;;;;;;;;4984426;28;20073;-90
2023/08/26 14:50:32;;;;;;;11.82;1.20;;;;;;;;;;5003812;28;20062;-90
2023/08/26 14:53:05;;;;;;;6.00;1.02;;;;;;;;;;4997080;28;20409;-90
2023/08/26 14:55:42;;;;;;;6.03;1.25;;;;;;;;;;4980359;28;20046;-90
2023/08/26 14:58:12;;;;;;;5.57;1.27;;;;;;;;;;4979047;28;20050;-89
2023/08/26 15:00:55;;;;;;;3.28;0.80;;;;;;;;;;4981585;28;20054;-90
2023/08/26 15:03:30;;;;;;;5.57;1.33;;;;;;;;;;4975180;28;20225;-89
2023/08/26 15:06:01;;;;;;;5.63;1.02;;;;;;;;;;4975150;28;20083;-90
2023/08/26 15:08:39;;;;;;;1.60;0.77;;;;;;;;;;4975678;28;20137;-89
2023/08/26 15:11:11;;;;;;;2.33;0.80;;;;;;;;;;4975418;28;20086;-89
2023/08/26 15:13:42;;;;;;;4.07;0.90;;;;;;;;;;4998154;28;20634;-89
2023/08/26 15:16:26;;;;;;;2.10;0.70;;;;;;;;;;4975576;28;20421;-89
2023/08/26 15:19:00;;;;;;;2.00;0.90;;;;;;;;;;4980167;28;20136;-89
2023/08/26 15:21:42;;;;;;;4.35;0.73;;;;;;;;;;4985174;28;20047;-90
2023/08/26 15:24:16;;;;;;;2.92;0.82;;;;;;;;;;4962478;28;20050;-90
2023/08/26 15:26:51;;;;;;;2.00;0.90;;;;;;;;;;4982086;28;20058;-91
2023/08/26 15:29:32;;;;;;;3.50;0.95;;;;;;;;;;4985804;28;20386;-90
2023/08/26 15:32:05;;;;;;;2.35;0.55;;;;;;;;;;4978777;28;20117;-89
2023/08/26 15:34:36;;;;;;;2.67;0.80;;;;;;;;;;4979895;28;20065;-88
2023/08/26 15:37:09;;;;;;;2.40;0.77;;;;;;;;;;4987264;28;20512;-89
2023/08/26 15:50:49;;;;;;;2.22;0.70;;;;;;;;;;6222690;23;20809;-89
2023/08/26 15:53:21;;;;;;;3.00;1.00;;;;;;;;;;6234508;23;20080;-90
2023/08/26 15:56:10;;;;;;;3.42;0.70;;;;;;;;;;6224350;23;20349;-89
2023/08/26 16:02:05;;;;;;;15.20;1.08;;;;;;;;;;6226215;23;20187;-89
2023/08/26 16:04:49;;;;;;;2.67;0.85;;;;;;;;;;6220100;23;20064;-90
2023/08/26 16:07:20;;;;;;;3.03;1.00;;;;;;;;;;6222025;23;20019;-90
2023/08/26 16:10:04;;;;;;;5.45;1.00;;;;;;;;;;6218627;23;20081;-90
2023/08/26 16:12:37;;;;;;;4.22;0.80;;;;;;;;;;6224883;23;20156;-88
2023/08/26 16:15:47;;;;;;;3.40;0.93;;;;;;;;;;6237356;23;20039;-89
2023/08/26 16:18:33;;;;;;;2.15;0.70;;;;;;;;;;6233891;23;20026;-89
2023/08/26 16:21:21;;;;;;;11.25;0.75;;;;;;;;;;6227298;23;20077;-89
2023/08/26 16:24:18;;;;;;;1.47;0.70;;;;;;;;;;6232576;23;20028;-90
2023/08/26 16:27:05;;;;;;;2.75;1.33;;;;;;;;;;6215496;23;20012;-90
2023/08/26 16:30:14;;;;;;;5.97;2.45;;;;;;;;;;6232285;23;20024;-90
2023/08/26 16:32:56;;;;;;;14.52;12.85;;;;;;;;;;6237642;23;20025;-89
2023/08/26 16:35:39;;;;;;;5.25;2.30;;;;;;;;;;6232617;23;20203;-89
2023/08/26 16:38:30;;;;;;;4.80;1.08;;;;;;;;;;6235168;23;20088;-89
2023/08/26 16:41:06;;;;;;;;;;;;;;;;;;6231782;23;20036;-90
2023/08/26 16:43:39;;;;;;;3.55;0.93;;;;;;;;;;6231157;23;19927;-89
2023/08/26 16:46:21;;;;;;;3.10;0.90;;;;;;;;;;6222612;23;20036;-90
2023/08/26 16:48:50;;;;;;;8.00;1.33;;;;;;;;;;6228272;23;20019;-90
2023/08/26 16:51:18;;;;;;;2.75;1.30;;;;;;;;;;6220604;23;20106;-89
2023/08/26 16:53:51;;;;;;;4.45;1.67;;;;;;;;;;6225047;23;20025;-89
2023/08/26 16:56:24;;;;;;;5.80;1.75;;;;;;;;;;6221255;23;20093;-90
2023/08/26 16:59:02;;;;;;;2.15;0.98;;;;;;;;;;6222986;23;20025;-89
2023/08/26 17:01:31;;;;;;;2.10;0.63;;;;;;;;;;6223479;23;20035;-88
2023/08/26 17:04:12;;;;;;;4.97;0.63;;;;;;;;;;6216536;23;20031;-88
2023/08/26 17:06:49;;;;;;;6.35;0.93;;;;;;;;;;6219903;23;20062;-88
2023/08/26 17:09:30;;;;;;;5.10;1.15;;;;;;;;;;6223431;23;20039;-87
2023/08/26 17:11:58;;;;;;;2.50;0.90;;;;;;;;;;6219402;23;20028;-88
2023/08/26 17:14:34;;;;;;;4.68;1.15;;;;;;;;;;6220714;23;20179;-88
2023/08/26 17:17:04;;;;;;;7.15;1.80;;;;;;;;;;6219869;23;20104;-87
2023/08/26 17:19:40;;;;;;;4.72;3.20;;;;;;;;;;6222491;23;20027;-87
2023/08/26 17:22:31;;;;;;;2.45;1.23;;;;;;;;;;6217239;23;20024;-87
2023/08/26 17:25:02;;;;;;;11.02;7.32;;;;;;;;;;6221606;23;20156;-87
2023/08/26 17:27:32;;;;;;;12.07;4.80;;;;;;;;;;6219773;23;20076;-88
2023/08/26 17:30:09;;;;;;;4.97;3.25;;;;;;;;;;6220094;23;20077;-88
2023/08/26 17:32:45;;;;;;;7.45;4.20;;;;;;;;;;6217496;23;20025;-87
2023/08/26 17:35:26;;;;;;;2.30;1.10;;;;;;;;;;6216461;23;20028;-87
2023/08/26 17:38:00;;;;;;;1.77;0.60;;;;;;;;;;6215637;23;20146;-87
2023/08/26 17:40:28;;;;;;;3.38;1.05;;;;;;;;;;6213892;23;20025;-87
2023/08/26 17:42:59;;;;;;;3.47;1.00;;;;;;;;;;6211632;23;20533;-87
2023/08/26 17:45:30;;;;;;;8.25;1.40;;;;;;;;;;6211760;23;20233;-87
2023/08/26 17:48:02;;;;;;;13.63;2.42;;;;;;;;;;6211293;23;20056;-86
2023/08/26 17:50:32;;;;;;;6.07;2.30;;;;;;;;;;6183157;23;20076;-85
2023/08/26 17:53:05;;;;;;;10.05;2.80;;;;;;;;;;6238138;22;20013;-86
2023/08/26 17:55:55;;;;;;;10.05;2.75;;;;;;;;;;6216908;23;20296;-88
2023/08/26 17:58:25;;;;;;;4.53;2.17;;;;;;;;;;6207624;23;20025;-87
2023/08/26 18:00:54;;;;;;;6.97;2.08;;;;;;;;;;6186102;23;20099;-88